sensor_id;sensor_type;location;lat;lon;timestamp;P1;durP1;ratioP1;P2;durP2;ratioP2
35943;SDS011;22029;54.774;9.434;2023-04-15T03:51:47;0.30;;;0.30;;
35943;SDS011;22029;54.774;9.434;2023-04-15T03:54:33;0.28;;;0.28;;
35943;SDS011;22029;54.774;9.434;2023-04-15T03:57:25;0.20;;;0.20;;
35943;SDS011;22029;54.774;9.434;2023-04-15T04:00:16;0.25;;;0.25;;
35943;SDS011;22029;54.774;9.434;2023-04-15T04:03:08;0.20;;;0.20;;
35943;SDS011;22029;54.774;9.434;2023-04-15T04:05:55;0.30;;;0.30;;
35943;SDS011;22029;54.774;9.434;2023-04-15T04:08:39;0.30;;;0.30;;
35943;SDS011;22029;54.774;9.434;2023-04-15T04:11:31;0.20;;;0.20;;
35943;SDS011;22029;54.774;9.434;2023-04-15T04:14:13;0.20;;;0.20;;
35943;SDS011;22029;54.774;9.434;2023-04-15T04:17:02;0.20;;;0.20;;
35943;SDS011;22029;54.774;9.434;2023-04-15T04:19:50;0.30;;;0.30;;
35943;SDS011;22029;54.774;9.434;2023-04-15T04:22:36;0.30;;;0.30;;
35943;SDS011;22029;54.774;9.434;2023-04-15T04:29:28;0.30;;;0.30;;
35943;SDS011;22029;54.774;9.434;2023-04-15T04:33:25;0.25;;;0.25;;
35943;SDS011;22029;54.774;9.434;2023-04-15T04:37:24;0.20;;;0.20;;
35943;SDS011;22029;54.774;9.434;2023-04-15T04:41:07;0.28;;;0.28;;
35943;SDS011;22029;54.774;9.434;2023-04-15T04:44:53;0.20;;;0.20;;
35943;SDS011;22029;54.774;9.434;2023-04-15T04:51:42;0.20;;;0.20;;
35943;SDS011;22029;54.774;9.434;2023-04-15T04:55:35;0.20;;;0.20;;
35943;SDS011;22029;54.774;9.434;2023-04-15T04:58:06;0.20;;;0.20;;
35943;SDS011;22029;54.774;9.434;2023-04-15T05:00:41;0.30;;;0.30;;
35943;SDS011;22029;54.774;9.434;2023-04-15T05:03:16;0.21;;;0.21;;
35943;SDS011;22029;54.774;9.434;2023-04-15T05:05:48;0.30;;;0.30;;
35943;SDS011;22029;54.774;9.434;2023-04-15T05:08:23;0.20;;;0.20;;
35943;SDS011;22029;54.774;9.434;2023-04-15T05:10:53;0.22;;;0.22;;
35943;SDS011;22029;54.774;9.434;2023-04-15T05:13:24;0.20;;;0.20;;
35943;SDS011;22029;54.774;9.434;2023-04-15T05:16:05;0.20;;;0.20;;
35943;SDS011;22029;54.774;9.434;2023-04-15T05:18:37;0.20;;;0.20;;
35943;SDS011;22029;54.774;9.434;2023-04-15T05:21:10;0.20;;;0.20;;
35943;SDS011;22029;54.774;9.434;2023-04-15T05:23:42;0.20;;;0.20;;
35943;SDS011;22029;54.774;9.434;2023-04-15T05:26:15;0.30;;;0.30;;
35943;SDS011;22029;54.774;9.434;2023-04-15T05:28:49;0.20;;;0.20;;
35943;SDS011;22029;54.774;9.434;2023-04-15T05:31:21;0.20;;;0.20;;
35943;SDS011;22029;54.774;9.434;2023-04-15T05:33:55;0.20;;;0.20;;
35943;SDS011;22029;54.774;9.434;2023-04-15T05:36:27;0.20;;;0.20;;
35943;SDS011;22029;54.774;9.434;2023-04-15T05:38:59;0.20;;;0.20;;
35943;SDS011;22029;54.774;9.434;2023-04-15T05:41:30;0.20;;;0.20;;
35943;SDS011;22029;54.774;9.434;2023-04-15T05:44:03;0.20;;;0.20;;
35943;SDS011;22029;54.774;9.434;2023-04-15T05:46:42;0.20;;;0.20;;
35943;SDS011;22029;54.774;9.434;2023-04-15T05:49:13;0.30;;;0.30;;
35943;SDS011;22029;54.774;9.434;2023-04-15T05:51:46;0.23;;;0.23;;
35943;SDS011;22029;54.774;9.434;2023-04-15T05:54:17;0.20;;;0.20;;
35943;SDS011;22029;54.774;9.434;2023-04-15T05:56:50;0.30;;;0.30;;
35943;SDS011;22029;54.774;9.434;2023-04-15T05:59:21;0.30;;;0.30;;
35943;SDS011;22029;54.774;9.434;2023-04-15T06:01:55;0.20;;;0.20;;
35943;SDS011;22029;54.774;9.434;2023-04-15T06:04:32;0.22;;;0.22;;
35943;SDS011;22029;54.774;9.434;2023-04-15T06:07:03;0.20;;;0.20;;
35943;SDS011;22029;54.774;9.434;2023-04-15T06:09:34;0.20;;;0.20;;
35943;SDS011;22029;54.774;9.434;2023-04-15T06:12:05;0.23;;;0.23;;
35943;SDS011;22029;54.774;9.434;2023-04-15T06:14:41;0.20;;;0.20;;
35943;SDS011;22029;54.774;9.434;2023-04-15T06:17:14;0.20;;;0.20;;
35943;SDS011;22029;54.774;9.434;2023-04-15T06:19:47;0.20;;;0.20;;
35943;SDS011;22029;54.774;9.434;2023-04-15T06:22:24;0.20;;;0.20;;
35943;SDS011;22029;54.774;9.434;2023-04-15T06:24:55;0.20;;;0.20;;
35943;SDS011;22029;54.774;9.434;2023-04-15T06:27:26;0.30;;;0.30;;
35943;SDS011;22029;54.774;9.434;2023-04-15T06:29:59;0.20;;;0.20;;
35943;SDS011;22029;54.774;9.434;2023-04-15T06:32:32;0.20;;;0.20;;
35943;SDS011;22029;54.774;9.434;2023-04-15T06:35:03;0.20;;;0.20;;
35943;SDS011;22029;54.774;9.434;2023-04-15T06:37:35;0.20;;;0.20;;
35943;SDS011;22029;54.774;9.434;2023-04-15T06:40:11;0.20;;;0.20;;
35943;SDS011;22029;54.774;9.434;2023-04-15T06:42:45;0.20;;;0.20;;
35943;SDS011;22029;54.774;9.434;2023-04-15T06:45:16;0.20;;;0.20;;
35943;SDS011;22029;54.774;9.434;2023-04-15T06:47:53;0.30;;;0.30;;
35943;SDS011;22029;54.774;9.434;2023-04-15T06:50:28;0.30;;;0.30;;
35943;SDS011;22029;54.774;9.434;2023-04-15T06:53:03;0.20;;;0.20;;
35943;SDS011;22029;54.774;9.434;2023-04-15T06:55:43;0.20;;;0.20;;
35943;SDS011;22029;54.774;9.434;2023-04-15T06:58:14;0.20;;;0.20;;
35943;SDS011;22029;54.774;9.434;2023-04-15T07:00:48;0.20;;;0.20;;
35943;SDS011;22029;54.774;9.434;2023-04-15T07:03:25;0.20;;;0.20;;
35943;SDS011;22029;54.774;9.434;2023-04-15T07:06:00;0.20;;;0.20;;
35943;SDS011;22029;54.774;9.434;2023-04-15T07:08:36;0.20;;;0.20;;
35943;SDS011;22029;54.774;9.434;2023-04-15T07:11:07;0.30;;;0.30;;
35943;SDS011;22029;54.774;9.434;2023-04-15T07:13:41;0.20;;;0.20;;
35943;SDS011;22029;54.774;9.434;2023-04-15T07:16:13;0.20;;;0.20;;
35943;SDS011;22029;54.774;9.434;2023-04-15T07:18:48;0.20;;;0.20;;
35943;SDS011;22029;54.774;9.434;2023-04-15T07:21:22;0.20;;;0.20;;
35943;SDS011;22029;54.774;9.434;2023-04-15T07:24:05;0.20;;;0.20;;
35943;SDS011;22029;54.774;9.434;2023-04-15T07:26:47;0.20;;;0.20;;
35943;SDS011;22029;54.774;9.434;2023-04-15T07:29:27;0.20;;;0.20;;
35943;SDS011;22029;54.774;9.434;2023-04-15T07:31:58;0.20;;;0.20;;
35943;SDS011;22029;54.774;9.434;2023-04-15T07:34:40;0.20;;;0.20;;
35943;SDS011;22029;54.774;9.434;2023-04-15T07:37:15;0.20;;;0.20;;
35943;SDS011;22029;54.774;9.434;2023-04-15T07:39:46;0.20;;;0.20;;
35943;SDS011;22029;54.774;9.434;2023-04-15T07:42:20;0.20;;;0.20;;
35943;SDS011;22029;54.774;9.434;2023-04-15T07:44:54;0.20;;;0.20;;
35943;SDS011;22029;54.774;9.434;2023-04-15T07:47:26;0.20;;;0.20;;
35943;SDS011;22029;54.774;9.434;2023-04-15T07:49:58;0.20;;;0.20;;
35943;SDS011;22029;54.774;9.434;2023-04-15T07:52:29;0.20;;;0.20;;
35943;SDS011;22029;54.774;9.434;2023-04-15T07:55:09;0.20;;;0.20;;
35943;SDS011;22029;54.774;9.434;2023-04-15T07:57:45;0.20;;;0.20;;
35943;SDS011;22029;54.774;9.434;2023-04-15T08:00:16;0.20;;;0.20;;
35943;SDS011;22029;54.774;9.434;2023-04-15T08:02:50;0.20;;;0.20;;
35943;SDS011;22029;54.774;9.434;2023-04-15T08:05:33;0.20;;;0.20;;
35943;SDS011;22029;54.774;9.434;2023-04-15T08:08:06;0.30;;;0.30;;
35943;SDS011;22029;54.774;9.434;2023-04-15T08:10:42;0.20;;;0.20;;
35943;SDS011;22029;54.774;9.434;2023-04-15T08:13:24;0.20;;;0.20;;
35943;SDS011;22029;54.774;9.434;2023-04-15T08:16:18;0.23;;;0.23;;
35943;SDS011;22029;54.774;9.434;2023-04-15T08:18:49;0.20;;;0.20;;
35943;SDS011;22029;54.774;9.434;2023-04-15T08:21:28;0.20;;;0.20;;
35943;SDS011;22029;54.774;9.434;2023-04-15T08:24:06;0.20;;;0.20;;
35943;SDS011;22029;54.774;9.434;2023-04-15T08:26:40;0.20;;;0.20;;
35943;SDS011;22029;54.774;9.434;2023-04-15T08:29:22;0.20;;;0.20;;
35943;SDS011;22029;54.774;9.434;2023-04-15T08:32:01;0.20;;;0.20;;
35943;SDS011;22029;54.774;9.434;2023-04-15T08:34:34;0.20;;;0.20;;
35943;SDS011;22029;54.774;9.434;2023-04-15T08:37:09;0.20;;;0.20;;
35943;SDS011;22029;54.774;9.434;2023-04-15T08:39:44;0.20;;;0.20;;
35943;SDS011;22029;54.774;9.434;2023-04-15T08:42:22;0.20;;;0.20;;
35943;SDS011;22029;54.774;9.434;2023-04-15T08:45:04;0.20;;;0.20;;
35943;SDS011;22029;54.774;9.434;2023-04-15T08:47:51;0.20;;;0.20;;
35943;SDS011;22029;54.774;9.434;2023-04-15T08:50:25;0.20;;;0.20;;
35943;SDS011;22029;54.774;9.434;2023-04-15T08:53:09;0.20;;;0.20;;
35943;SDS011;22029;54.774;9.434;2023-04-15T08:55:51;0.20;;;0.20;;
35943;SDS011;22029;54.774;9.434;2023-04-15T08:58:27;0.20;;;0.20;;
35943;SDS011;22029;54.774;9.434;2023-04-15T09:01:04;0.20;;;0.20;;
35943;SDS011;22029;54.774;9.434;2023-04-15T09:03:35;0.20;;;0.20;;
35943;SDS011;22029;54.774;9.434;2023-04-15T09:06:16;0.20;;;0.20;;
35943;SDS011;22029;54.774;9.434;2023-04-15T09:08:59;0.20;;;0.20;;
35943;SDS011;22029;54.774;9.434;2023-04-15T09:11:40;0.20;;;0.20;;
35943;SDS011;22029;54.774;9.434;2023-04-15T09:14:23;0.20;;;0.20;;
35943;SDS011;22029;54.774;9.434;2023-04-15T09:16:57;0.20;;;0.20;;
35943;SDS011;22029;54.774;9.434;2023-04-15T09:19:40;0.20;;;0.20;;
35943;SDS011;22029;54.774;9.434;2023-04-15T09:22:20;0.20;;;0.20;;
35943;SDS011;22029;54.774;9.434;2023-04-15T09:24:52;0.20;;;0.20;;
35943;SDS011;22029;54.774;9.434;2023-04-15T09:27:23;0.20;;;0.20;;
35943;SDS011;22029;54.774;9.434;2023-04-15T09:30:06;0.23;;;0.23;;
35943;SDS011;22029;54.774;9.434;2023-04-15T09:32:48;0.20;;;0.20;;
35943;SDS011;22029;54.774;9.434;2023-04-15T09:35:23;0.20;;;0.20;;
35943;SDS011;22029;54.774;9.434;2023-04-15T09:38:01;0.20;;;0.20;;
35943;SDS011;22029;54.774;9.434;2023-04-15T09:40:48;0.20;;;0.20;;
35943;SDS011;22029;54.774;9.434;2023-04-15T09:43:38;0.20;;;0.20;;
35943;SDS011;22029;54.774;9.434;2023-04-15T09:46:20;0.20;;;0.20;;
35943;SDS011;22029;54.774;9.434;2023-04-15T09:49:20;0.20;;;0.20;;
35943;SDS011;22029;54.774;9.434;2023-04-15T09:52:03;0.20;;;0.20;;
35943;SDS011;22029;54.774;9.434;2023-04-15T09:54:45;0.20;;;0.20;;
35943;SDS011;22029;54.774;9.434;2023-04-15T09:57:34;0.20;;;0.20;;
35943;SDS011;22029;54.774;9.434;2023-04-15T10:00:18;0.20;;;0.20;;
35943;SDS011;22029;54.774;9.434;2023-04-15T10:03:00;0.20;;;0.20;;
35943;SDS011;22029;54.774;9.434;2023-04-15T10:05:44;0.20;;;0.20;;
35943;SDS011;22029;54.774;9.434;2023-04-15T10:08:26;0.20;;;0.20;;
35943;SDS011;22029;54.774;9.434;2023-04-15T10:11:09;0.20;;;0.20;;
35943;SDS011;22029;54.774;9.434;2023-04-15T10:13:52;0.20;;;0.20;;
35943;SDS011;22029;54.774;9.434;2023-04-15T10:16:31;0.20;;;0.20;;
35943;SDS011;22029;54.774;9.434;2023-04-15T10:19:15;0.20;;;0.20;;
35943;SDS011;22029;54.774;9.434;2023-04-15T10:22:05;0.20;;;0.20;;
35943;SDS011;22029;54.774;9.434;2023-04-15T10:24:49;0.18;;;0.18;;
35943;SDS011;22029;54.774;9.434;2023-04-15T10:27:34;0.20;;;0.20;;
35943;SDS011;22029;54.774;9.434;2023-04-15T10:30:24;0.20;;;0.20;;
35943;SDS011;22029;54.774;9.434;2023-04-15T10:33:12;0.20;;;0.20;;
35943;SDS011;22029;54.774;9.434;2023-04-15T10:36:07;0.17;;;0.17;;
35943;SDS011;22029;54.774;9.434;2023-04-15T10:38:57;0.15;;;0.15;;
35943;SDS011;22029;54.774;9.434;2023-04-15T10:41:44;0.17;;;0.17;;
35943;SDS011;22029;54.774;9.434;2023-04-15T10:44:37;0.18;;;0.18;;
35943;SDS011;22029;54.774;9.434;2023-04-15T10:47:25;0.20;;;0.20;;
35943;SDS011;22029;54.774;9.434;2023-04-15T10:50:13;0.09;;;0.09;;
35943;SDS011;22029;54.774;9.434;2023-04-15T10:53:04;0.20;;;0.20;;
35943;SDS011;22029;54.774;9.434;2023-04-15T10:55:46;0.10;;;0.10;;
35943;SDS011;22029;54.774;9.434;2023-04-15T10:58:29;0.08;;;0.08;;
35943;SDS011;22029;54.774;9.434;2023-04-15T11:07:34;0.15;;;0.15;;
35943;SDS011;22029;54.774;9.434;2023-04-15T11:13:36;0.14;;;0.14;;
35943;SDS011;22029;54.774;9.434;2023-04-15T11:17:33;0.09;;;0.09;;
35943;SDS011;22029;54.774;9.434;2023-04-15T11:20:21;0.10;;;0.10;;
35943;SDS011;22029;54.774;9.434;2023-04-15T11:23:14;0.10;;;0.10;;
35943;SDS011;22029;54.774;9.434;2023-04-15T11:26:04;0.08;;;0.08;;
35943;SDS011;22029;54.774;9.434;2023-04-15T11:29:01;0.10;;;0.10;;
35943;SDS011;22029;54.774;9.434;2023-04-15T11:32:08;0.10;;;0.10;;
35943;SDS011;22029;54.774;9.434;2023-04-15T11:34:57;0.10;;;0.10;;
35943;SDS011;22029;54.774;9.434;2023-04-15T11:37:49;0.05;;;0.05;;
35943;SDS011;22029;54.774;9.434;2023-04-15T11:40:49;0.00;;;0.00;;
35943;SDS011;22029;54.774;9.434;2023-04-15T11:43:49;0.00;;;0.00;;
35943;SDS011;22029;54.774;9.434;2023-04-15T11:46:45;0.00;;;0.00;;
35943;SDS011;22029;54.774;9.434;2023-04-15T11:49:56;0.10;;;0.10;;
35943;SDS011;22029;54.774;9.434;2023-04-15T11:53:00;0.10;;;0.10;;
35943;SDS011;22029;54.774;9.434;2023-04-15T11:56:19;0.00;;;0.00;;
35943;SDS011;22029;54.774;9.434;2023-04-15T12:06:52;0.05;;;0.05;;
35943;SDS011;22029;54.774;9.434;2023-04-15T12:10:22;0.00;;;0.00;;
35943;SDS011;22029;54.774;9.434;2023-04-15T12:13:49;0.00;;;0.00;;
35943;SDS011;22029;54.774;9.434;2023-04-15T12:17:16;0.00;;;0.00;;
35943;SDS011;22029;54.774;9.434;2023-04-15T12:20:42;0.00;;;0.00;;
35943;SDS011;22029;54.774;9.434;2023-04-15T12:27:49;0.00;;;0.00;;
35943;SDS011;22029;54.774;9.434;2023-04-15T12:31:19;0.00;;;0.00;;
35943;SDS011;22029;54.774;9.434;2023-04-15T12:37:40;0.00;;;0.00;;
35943;SDS011;22029;54.774;9.434;2023-04-15T12:43:57;0.00;;;0.00;;
35943;SDS011;22029;54.774;9.434;2023-04-15T12:47:08;0.00;;;0.00;;
35943;SDS011;22029;54.774;9.434;2023-04-15T12:50:22;0.03;;;0.03;;
35943;SDS011;22029;54.774;9.434;2023-04-15T12:53:26;0.08;;;0.08;;
35943;SDS011;22029;54.774;9.434;2023-04-15T12:56:34;0.10;;;0.10;;
35943;SDS011;22029;54.774;9.434;2023-04-15T12:59:36;0.05;;;0.05;;
35943;SDS011;22029;54.774;9.434;2023-04-15T13:02:40;0.10;;;0.10;;
35943;SDS011;22029;54.774;9.434;2023-04-15T13:05:57;0.08;;;0.08;;
35943;SDS011;22029;54.774;9.434;2023-04-15T13:09:05;0.10;;;0.10;;
35943;SDS011;22029;54.774;9.434;2023-04-15T13:12:11;0.10;;;0.10;;
35943;SDS011;22029;54.774;9.434;2023-04-15T13:15:20;0.08;;;0.08;;
35943;SDS011;22029;54.774;9.434;2023-04-15T13:18:28;0.08;;;0.08;;
35943;SDS011;22029;54.774;9.434;2023-04-15T13:21:50;0.10;;;0.10;;
35943;SDS011;22029;54.774;9.434;2023-04-15T13:24:46;0.10;;;0.10;;
35943;SDS011;22029;54.774;9.434;2023-04-15T13:27:28;0.08;;;0.08;;
35943;SDS011;22029;54.774;9.434;2023-04-15T13:30:17;0.10;;;0.10;;
35943;SDS011;22029;54.774;9.434;2023-04-15T13:33:04;0.08;;;0.08;;
35943;SDS011;22029;54.774;9.434;2023-04-15T13:35:57;0.10;;;0.10;;
35943;SDS011;22029;54.774;9.434;2023-04-15T13:38:51;0.10;;;0.10;;
35943;SDS011;22029;54.774;9.434;2023-04-15T13:42:03;0.08;;;0.08;;
35943;SDS011;22029;54.774;9.434;2023-04-15T13:45:03;0.05;;;0.05;;
35943;SDS011;22029;54.774;9.434;2023-04-15T13:48:00;0.03;;;0.03;;
35943;SDS011;22029;54.774;9.434;2023-04-15T13:50:59;0.10;;;0.10;;
35943;SDS011;22029;54.774;9.434;2023-04-15T13:54:00;0.20;;;0.20;;
35943;SDS011;22029;54.774;9.434;2023-04-15T13:57:01;0.08;;;0.08;;
35943;SDS011;22029;54.774;9.434;2023-04-15T14:00:24;0.08;;;0.08;;
35943;SDS011;22029;54.774;9.434;2023-04-15T14:18:47;0.10;;;0.10;;
35943;SDS011;22029;54.774;9.434;2023-04-15T14:21:48;0.10;;;0.10;;
35943;SDS011;22029;54.774;9.434;2023-04-15T14:25:04;0.03;;;0.03;;
35943;SDS011;22029;54.774;9.434;2023-04-15T14:28:10;0.05;;;0.05;;
35943;SDS011;22029;54.774;9.434;2023-04-15T14:31:17;0.17;;;0.17;;
35943;SDS011;22029;54.774;9.434;2023-04-15T14:34:34;0.10;;;0.10;;
35943;SDS011;22029;54.774;9.434;2023-04-15T14:40:49;0.10;;;0.10;;
35943;SDS011;22029;54.774;9.434;2023-04-15T14:46:57;0.10;;;0.10;;
35943;SDS011;22029;54.774;9.434;2023-04-15T14:50:17;0.00;;;0.00;;
35943;SDS011;22029;54.774;9.434;2023-04-15T14:59:34;0.10;;;0.10;;
35943;SDS011;22029;54.774;9.434;2023-04-15T15:02:56;0.00;;;0.00;;
35943;SDS011;22029;54.774;9.434;2023-04-15T15:06:02;0.00;;;0.00;;
35943;SDS011;22029;54.774;9.434;2023-04-15T15:09:11;0.00;;;0.00;;
35943;SDS011;22029;54.774;9.434;2023-04-15T15:12:13;0.10;;;0.10;;
35943;SDS011;22029;54.774;9.434;2023-04-15T15:18:34;0.10;;;0.10;;
35943;SDS011;22029;54.774;9.434;2023-04-15T15:21:41;0.08;;;0.08;;
35943;SDS011;22029;54.774;9.434;2023-04-15T15:25:01;0.06;;;0.06;;
35943;SDS011;22029;54.774;9.434;2023-04-15T15:28:19;0.10;;;0.10;;
35943;SDS011;22029;54.774;9.434;2023-04-15T15:31:20;0.10;;;0.10;;
35943;SDS011;22029;54.774;9.434;2023-04-15T15:34:23;0.17;;;0.17;;
35943;SDS011;22029;54.774;9.434;2023-04-15T15:40:10;0.08;;;0.08;;
35943;SDS011;22029;54.774;9.434;2023-04-15T15:43:10;0.08;;;0.08;;
35943;SDS011;22029;54.774;9.434;2023-04-15T15:46:20;0.08;;;0.08;;
35943;SDS011;22029;54.774;9.434;2023-04-15T15:49:16;0.17;;;0.17;;
35943;SDS011;22029;54.774;9.434;2023-04-15T15:52:23;0.10;;;0.10;;
35943;SDS011;22029;54.774;9.434;2023-04-15T15:55:19;0.10;;;0.10;;
35943;SDS011;22029;54.774;9.434;2023-04-15T15:58:19;0.08;;;0.08;;
35943;SDS011;22029;54.774;9.434;2023-04-15T16:01:17;0.20;;;0.20;;
35943;SDS011;22029;54.774;9.434;2023-04-15T16:04:39;0.11;;;0.11;;
35943;SDS011;22029;54.774;9.434;2023-04-15T16:07:37;0.08;;;0.08;;
35943;SDS011;22029;54.774;9.434;2023-04-15T16:10:29;0.17;;;0.17;;
35943;SDS011;22029;54.774;9.434;2023-04-15T16:13:21;0.10;;;0.10;;
35943;SDS011;22029;54.774;9.434;2023-04-15T16:16:43;0.19;;;0.19;;
35943;SDS011;22029;54.774;9.434;2023-04-15T16:19:44;0.13;;;0.13;;
35943;SDS011;22029;54.774;9.434;2023-04-15T16:23:15;0.20;;;0.20;;
35943;SDS011;22029;54.774;9.434;2023-04-15T16:26:44;0.15;;;0.15;;
35943;SDS011;22029;54.774;9.434;2023-04-15T16:30:01;0.15;;;0.15;;
35943;SDS011;22029;54.774;9.434;2023-04-15T16:42:34;0.17;;;0.17;;
35943;SDS011;22029;54.774;9.434;2023-04-15T16:46:23;0.08;;;0.08;;
35943;SDS011;22029;54.774;9.434;2023-04-15T16:56:19;0.10;;;0.10;;
35943;SDS011;22029;54.774;9.434;2023-04-15T17:00:03;0.10;;;0.10;;
35943;SDS011;22029;54.774;9.434;2023-04-15T17:03:52;0.13;;;0.13;;
35943;SDS011;22029;54.774;9.434;2023-04-15T17:07:27;0.17;;;0.17;;
35943;SDS011;22029;54.774;9.434;2023-04-15T17:11:01;0.20;;;0.20;;
35943;SDS011;22029;54.774;9.434;2023-04-15T17:14:52;0.20;;;0.20;;
35943;SDS011;22029;54.774;9.434;2023-04-15T17:18:48;0.16;;;0.16;;
35943;SDS011;22029;54.774;9.434;2023-04-15T17:22:41;0.10;;;0.10;;
35943;SDS011;22029;54.774;9.434;2023-04-15T17:26:27;0.10;;;0.10;;
35943;SDS011;22029;54.774;9.434;2023-04-15T17:45:59;0.17;;;0.17;;
35943;SDS011;22029;54.774;9.434;2023-04-15T17:48:54;0.20;;;0.20;;
35943;SDS011;22029;54.774;9.434;2023-04-15T17:52:03;0.11;;;0.11;;
35943;SDS011;22029;54.774;9.434;2023-04-15T17:55:14;0.20;;;0.20;;
35943;SDS011;22029;54.774;9.434;2023-04-15T17:58:18;0.20;;;0.20;;
35943;SDS011;22029;54.774;9.434;2023-04-15T18:01:22;0.20;;;0.20;;
35943;SDS011;22029;54.774;9.434;2023-04-15T18:07:56;0.20;;;0.20;;
35943;SDS011;22029;54.774;9.434;2023-04-15T18:11:11;0.20;;;0.20;;
35943;SDS011;22029;54.774;9.434;2023-04-15T18:14:36;0.20;;;0.20;;
35943;SDS011;22029;54.774;9.434;2023-04-15T18:17:52;0.20;;;0.20;;
35943;SDS011;22029;54.774;9.434;2023-04-15T18:20:41;0.20;;;0.20;;
35943;SDS011;22029;54.774;9.434;2023-04-15T18:23:30;0.17;;;0.17;;
35943;SDS011;22029;54.774;9.434;2023-04-15T18:26:16;0.20;;;0.20;;
35943;SDS011;22029;54.774;9.434;2023-04-15T18:29:00;0.20;;;0.20;;
35943;SDS011;22029;54.774;9.434;2023-04-15T18:31:44;0.20;;;0.20;;
35943;SDS011;22029;54.774;9.434;2023-04-15T18:34:36;0.20;;;0.20;;
35943;SDS011;22029;54.774;9.434;2023-04-15T18:37:19;0.20;;;0.20;;
35943;SDS011;22029;54.774;9.434;2023-04-15T18:40:12;0.20;;;0.20;;
35943;SDS011;22029;54.774;9.434;2023-04-15T18:43:01;0.20;;;0.20;;
35943;SDS011;22029;54.774;9.434;2023-04-15T18:45:50;0.20;;;0.20;;
35943;SDS011;22029;54.774;9.434;2023-04-15T18:48:42;0.20;;;0.20;;
35943;SDS011;22029;54.774;9.434;2023-04-15T18:51:35;0.20;;;0.20;;
35943;SDS011;22029;54.774;9.434;2023-04-15T18:54:34;0.20;;;0.20;;
35943;SDS011;22029;54.774;9.434;2023-04-15T18:57:22;0.20;;;0.20;;
35943;SDS011;22029;54.774;9.434;2023-04-15T19:00:22;0.20;;;0.20;;
35943;SDS011;22029;54.774;9.434;2023-04-15T19:03:12;0.20;;;0.20;;
35943;SDS011;22029;54.774;9.434;2023-04-15T19:10:27;0.20;;;0.20;;
35943;SDS011;22029;54.774;9.434;2023-04-15T19:42:36;0.20;;;0.20;;
35943;SDS011;22029;54.774;9.434;2023-04-15T19:46:31;0.20;;;0.20;;
35943;SDS011;22029;54.774;9.434;2023-04-15T19:50:23;0.15;;;0.15;;
35943;SDS011;22029;54.774;9.434;2023-04-15T19:53:45;0.20;;;0.20;;
35943;SDS011;22029;54.774;9.434;2023-04-15T19:57:04;0.20;;;0.20;;
35943;SDS011;22029;54.774;9.434;2023-04-15T20:03:41;0.26;;;0.26;;
35943;SDS011;22029;54.774;9.434;2023-04-15T20:07:00;0.20;;;0.20;;
35943;SDS011;22029;54.774;9.434;2023-04-15T20:10:33;0.14;;;0.14;;
35943;SDS011;22029;54.774;9.434;2023-04-15T20:14:03;0.20;;;0.20;;
35943;SDS011;22029;54.774;9.434;2023-04-15T20:17:44;0.20;;;0.20;;
35943;SDS011;22029;54.774;9.434;2023-04-15T20:21:37;0.17;;;0.17;;
35943;SDS011;22029;54.774;9.434;2023-04-15T20:25:32;0.17;;;0.17;;
35943;SDS011;22029;54.774;9.434;2023-04-15T20:29:16;0.17;;;0.17;;
35943;SDS011;22029;54.774;9.434;2023-04-15T20:32:56;0.13;;;0.13;;
35943;SDS011;22029;54.774;9.434;2023-04-15T21:35:43;0.20;;;0.20;;
35943;SDS011;22029;54.774;9.434;2023-04-15T21:39:45;0.20;;;0.20;;
35943;SDS011;22029;54.774;9.434;2023-04-15T21:43:35;0.24;;;0.24;;
35943;SDS011;22029;54.774;9.434;2023-04-15T21:47:23;0.20;;;0.20;;
35943;SDS011;22029;54.774;9.434;2023-04-15T22:00:51;0.20;;;0.20;;
35943;SDS011;22029;54.774;9.434;2023-04-15T22:04:59;0.20;;;0.20;;
35943;SDS011;22029;54.774;9.434;2023-04-15T22:08:52;0.15;;;0.15;;
35943;SDS011;22029;54.774;9.434;2023-04-15T22:12:42;0.17;;;0.17;;
